Sagamore, Massachusetts
Current Conditions -  °F | °C
As of 3:35 AM on Sunday 23 Nov 2014 (Local Time) from KFMH Reporting Station
Overcast Overcast  
Wind Chill: 38°   Ceiling: 7000
Heat Index: 46°   Visibility: 10mi
Dew Point: 34°   Wind: 26mph
Humidity: 62%   Direction: 250°WSW
Pressure: 30.11"   Gusts: 32mph
Location:  41.78°N, 70.53°W
Report Text: KFMH 230835Z AUTO 25023G28KT 10SM OVC070 08/01 A3011 RMK AO2
Loading
Personal Weather Stations






























Interactive Weather Map New forecast layout! Learn more

10-Day Weather Forecast

Advertisements
Track Severe Weather on mobile